Time;durP1;ratioP1;P1;durP2;ratioP2;P2;SDS_P1;SDS_P2;PMS_P1;PMS_P2;Temp;Humidity;BMP_temperature;BMP_pressure;BME280_temperature;BME280_humidity;BME280_pressure;Samples;Min_cycle;Max_cycle;Signal;HPM_P1;HPM_P2
2022/09/10 00:01:37;;;;;;;7.37;2.87;;;19.20;99.90;;;;;;5046078;28;20228;-34
2022/09/10 00:04:15;;;;;;;5.17;2.70;;;19.30;99.90;;;;;;5046749;28;20192;-39
2022/09/10 00:06:47;;;;;;;8.27;3.13;;;19.20;99.90;;;;;;5058037;28;20266;-35
2022/09/10 00:09:19;;;;;;;7.03;2.60;;;19.30;99.90;;;;;;5052597;28;20673;-34
2022/09/10 00:11:46;;;;;;;8.25;2.90;;;19.30;99.90;;;;;;5057614;28;20247;-35
2022/09/10 00:14:19;;;;;;;7.10;2.57;;;19.30;99.90;;;;;;5052439;28;20211;-34
2022/09/10 00:16:47;;;;;;;5.17;2.80;;;19.30;99.90;;;;;;5056620;28;20327;-34
2022/09/10 00:19:17;;;;;;;6.93;2.97;;;19.20;99.90;;;;;;5045741;28;20230;-36
2022/09/10 00:21:45;;;;;;;6.10;3.05;;;19.30;99.90;;;;;;5056817;28;22211;-37
2022/09/10 00:24:16;;;;;;;5.28;2.70;;;19.30;99.90;;;;;;5066608;28;20315;-34
2022/09/10 00:26:44;;;;;;;6.00;2.83;;;19.30;99.90;;;;;;5050464;28;20206;-34
2022/09/10 00:29:16;;;;;;;9.48;2.75;;;19.30;99.90;;;;;;5060155;28;20200;-34
2022/09/10 00:31:45;;;;;;;7.70;3.00;;;19.30;99.90;;;;;;5055748;28;20624;-34
2022/09/10 00:34:16;;;;;;;7.00;2.47;;;19.30;99.90;;;;;;5057790;28;20250;-36
2022/09/10 00:36:45;;;;;;;8.17;2.90;;;19.30;99.90;;;;;;5055135;28;20208;-35
2022/09/10 00:39:17;;;;;;;8.30;2.90;;;19.30;99.90;;;;;;5053518;28;20212;-34
2022/09/10 00:41:46;;;;;;;7.13;2.70;;;19.30;99.90;;;;;;5050004;28;20596;-34
2022/09/10 00:44:38;;;;;;;5.73;2.53;;;19.30;99.90;;;;;;5058124;28;20203;-34
2022/09/10 00:47:20;;;;;;;5.43;2.40;;;19.30;99.90;;;;;;5065683;28;20260;-34
2022/09/10 00:49:59;;;;;;;7.05;3.05;;;19.30;99.90;;;;;;5054786;28;20224;-34
2022/09/10 00:52:28;;;;;;;5.67;2.23;;;19.30;99.90;;;;;;5048502;28;20230;-34
2022/09/10 00:54:56;;;;;;;8.15;2.17;;;19.30;99.90;;;;;;5050424;28;20212;-33
2022/09/10 00:57:25;;;;;;;5.83;2.87;;;19.20;99.90;;;;;;5038608;28;20215;-34
2022/09/10 00:59:58;;;;;;;8.07;2.27;;;19.30;99.90;;;;;;5053715;28;20243;-34
2022/09/10 01:02:26;;;;;;;4.43;2.20;;;19.20;99.90;;;;;;5058250;28;20227;-34
2022/09/10 01:04:57;;;;;;;6.63;2.20;;;19.30;99.90;;;;;;5057107;28;20227;-35
2022/09/10 01:07:27;;;;;;;7.57;2.43;;;19.30;99.90;;;;;;5054288;28;20633;-34
2022/09/10 01:10:15;;;;;;;6.60;2.47;;;19.30;99.90;;;;;;5060642;28;20254;-34
2022/09/10 01:12:50;;;;;;;6.10;2.17;;;19.30;99.90;;;;;;5057011;28;20208;-35
2022/09/10 01:15:35;;;;;;;7.63;2.40;;;19.30;99.90;;;;;;5058994;28;20192;-34
2022/09/10 01:18:12;;;;;;;5.53;2.38;;;19.30;99.90;;;;;;5048606;28;20223;-34
2022/09/10 01:21:05;;;;;;;3.30;1.90;;;19.30;99.90;;;;;;5053347;28;20215;-34
2022/09/10 01:23:32;;;;;;;6.22;2.17;;;19.30;99.90;;;;;;5052795;28;20211;-41
2022/09/10 01:26:18;;;;;;;8.30;2.58;;;19.30;99.90;;;;;;5054816;28;20200;-34
2022/09/10 01:28:49;;;;;;;7.07;2.65;;;19.30;99.90;;;;;;5051238;28;20701;-34
2022/09/10 01:31:36;;;;;;;6.07;2.60;;;19.30;99.90;;;;;;5061265;28;20254;-33
2022/09/10 01:34:28;;;;;;;5.22;2.50;;;19.30;99.90;;;;;;5056605;28;20231;-34
2022/09/10 01:37:06;;;;;;;5.45;2.33;;;19.30;99.90;;;;;;5065465;28;20209;-34
2022/09/10 01:39:37;;;;;;;6.13;2.58;;;19.30;99.90;;;;;;5058397;28;20203;-34
2022/09/10 01:42:09;;;;;;;7.53;2.70;;;19.20;99.90;;;;;;5059016;28;20232;-34
2022/09/10 01:44:43;;;;;;;5.22;2.40;;;19.20;99.90;;;;;;5054300;28;20234;-35
2022/09/10 01:47:38;;;;;;;7.72;2.95;;;19.20;99.90;;;;;;5056467;28;20209;-35
2022/09/10 01:50:44;;;;;;;5.68;2.80;;;19.20;99.90;;;;;;5051005;28;20212;-33
2022/09/10 01:53:21;;;;;;;8.80;3.20;;;19.20;99.90;;;;;;5072200;28;20194;-34
2022/09/10 01:56:03;;;;;;;5.57;2.77;;;19.20;99.90;;;;;;5055928;28;20211;-34
2022/09/10 01:58:43;;;;;;;6.18;3.08;;;19.20;99.90;;;;;;5049776;28;20235;-34
2022/09/10 02:01:24;;;;;;;7.35;3.20;;;19.20;99.90;;;;;;5062876;28;20730;-34
2022/09/10 02:03:58;;;;;;;7.23;3.13;;;19.10;99.90;;;;;;5066201;28;20253;-34
2022/09/10 02:06:31;;;;;;;6.77;3.03;;;19.10;99.90;;;;;;5064022;28;20217;-34
2022/09/10 02:08:59;;;;;;;6.57;3.33;;;19.10;99.90;;;;;;5059791;28;20199;-33
2022/09/10 02:11:31;;;;;;;6.07;3.00;;;19.10;99.90;;;;;;5058378;28;20208;-39
2022/09/10 02:14:00;;;;;;;8.03;3.67;;;19.10;99.90;;;;;;5047825;28;20204;-36
2022/09/10 02:16:37;;;;;;;8.60;3.60;;;19.10;99.90;;;;;;5052282;28;20725;-36
2022/09/10 02:19:07;;;;;;;7.37;3.20;;;19.10;99.90;;;;;;5046433;28;20572;-36
2022/09/10 02:21:35;;;;;;;10.05;3.70;;;19.10;99.90;;;;;;5051117;28;20721;-36
2022/09/10 02:24:08;;;;;;;7.05;3.40;;;19.10;99.90;;;;;;5065309;28;20210;-35
2022/09/10 02:26:41;;;;;;;8.00;3.63;;;19.10;99.90;;;;;;5067191;28;20219;-36
2022/09/10 02:29:10;;;;;;;6.30;3.13;;;19.10;99.90;;;;;;5047463;28;20298;-37
2022/09/10 02:31:40;;;;;;;7.50;3.37;;;19.10;99.90;;;;;;5051713;28;20227;-36
2022/09/10 02:34:16;;;;;;;5.20;3.17;;;19.10;99.90;;;;;;5051880;28;20618;-36
2022/09/10 02:36:43;;;;;;;5.47;2.87;;;19.10;99.90;;;;;;5066320;28;20650;-34
2022/09/10 02:39:13;;;;;;;7.97;3.47;;;19.10;99.90;;;;;;5066932;28;20207;-34
2022/09/10 02:41:46;;;;;;;5.88;3.03;;;19.10;99.90;;;;;;5058524;28;20256;-36
2022/09/10 02:44:16;;;;;;;7.70;3.03;;;19.10;99.90;;;;;;5066325;28;20693;-36
2022/09/10 02:46:45;;;;;;;11.02;3.10;;;19.10;99.90;;;;;;5065918;28;20242;-35
2022/09/10 02:49:15;;;;;;;8.20;2.65;;;19.20;99.90;;;;;;5063846;28;20196;-36
2022/09/10 02:51:46;;;;;;;4.82;2.47;;;19.10;99.90;;;;;;5045792;28;20593;-36
2022/09/10 02:54:13;;;;;;;5.10;2.17;;;19.10;99.90;;;;;;5060920;28;20307;-36
2022/09/10 02:56:43;;;;;;;8.70;2.38;;;19.20;99.90;;;;;;5064209;28;20637;-34
2022/09/10 02:59:13;;;;;;;6.20;2.77;;;19.10;99.90;;;;;;5059482;28;20317;-37
2022/09/10 03:01:40;;;;;;;6.27;2.70;;;19.20;99.90;;;;;;5074640;28;20539;-34
2022/09/10 03:04:07;;;;;;;6.70;2.30;;;19.20;99.90;;;;;;5047403;28;20349;-34
2022/09/10 03:06:35;;;;;;;3.97;2.08;;;19.20;99.90;;;;;;5060616;28;20208;-34
2022/09/10 03:09:03;;;;;;;4.85;1.95;;;19.20;99.90;;;;;;5046537;28;20614;-34
2022/09/10 03:11:33;;;;;;;6.40;2.20;;;19.20;99.90;;;;;;5045697;28;20621;-34
2022/09/10 03:14:00;;;;;;;9.10;2.50;;;19.20;99.90;;;;;;5063403;28;20223;-35
2022/09/10 03:16:27;;;;;;;6.47;2.28;;;19.30;99.90;;;;;;5063625;28;20216;-34
2022/09/10 03:18:55;;;;;;;6.93;2.22;;;19.30;99.90;;;;;;5047909;28;20227;-34
2022/09/10 03:21:23;;;;;;;7.57;2.90;;;19.30;99.90;;;;;;5057054;28;20230;-34
2022/09/10 03:23:54;;;;;;;8.30;2.70;;;19.30;99.90;;;;;;5054821;28;20583;-34
2022/09/10 03:26:25;;;;;;;6.30;2.70;;;19.30;99.90;;;;;;5055351;28;20705;-34
2022/09/10 03:28:54;;;;;;;5.47;2.28;;;19.30;99.90;;;;;;5058709;28;20277;-34
2022/09/10 03:31:22;;;;;;;4.67;3.17;;;19.30;99.90;;;;;;5038923;28;20211;-34
2022/09/10 03:33:52;;;;;;;9.13;3.17;;;19.30;99.90;;;;;;5051914;28;20219;-35
2022/09/10 03:36:21;;;;;;;7.28;2.92;;;19.30;99.90;;;;;;5066044;28;20211;-36
2022/09/10 03:38:49;;;;;;;8.07;3.65;;;19.40;99.90;;;;;;5054222;28;20214;-36
2022/09/10 03:41:16;;;;;;;7.13;3.30;;;19.30;99.90;;;;;;5057026;28;20644;-34
2022/09/10 03:43:45;;;;;;;7.70;3.65;;;19.30;99.90;;;;;;5050471;28;20207;-34
2022/09/10 03:46:13;;;;;;;5.07;3.90;;;19.30;99.90;;;;;;5066951;28;20261;-36
2022/09/10 03:48:42;;;;;;;6.73;4.60;;;19.30;99.90;;;;;;5046409;28;20204;-37
2022/09/10 03:51:09;;;;;;;6.90;4.28;;;19.30;99.90;;;;;;5047112;28;20204;-37
2022/09/10 03:53:41;;;;;;;8.07;5.57;;;19.30;99.90;;;;;;5056512;28;20215;-34
2022/09/10 03:56:11;;;;;;;9.07;5.15;;;19.30;99.90;;;;;;5053609;28;20200;-34
2022/09/10 03:58:38;;;;;;;10.33;5.87;;;19.30;99.90;;;;;;5047127;28;20264;-34
2022/09/10 04:01:06;;;;;;;10.38;5.93;;;19.30;99.90;;;;;;5047874;28;20626;-34
2022/09/10 04:03:36;;;;;;;7.15;5.57;;;19.40;99.90;;;;;;5045204;28;20598;-34
2022/09/10 04:06:09;;;;;;;8.20;5.55;;;19.30;99.90;;;;;;5059435;28;20214;-34
2022/09/10 04:08:39;;;;;;;7.70;6.00;;;19.30;99.90;;;;;;5064068;28;20212;-34
2022/09/10 04:11:06;;;;;;;8.70;5.60;;;19.30;99.90;;;;;;5066924;28;20315;-34
2022/09/10 04:13:33;;;;;;;10.70;6.17;;;19.30;99.90;;;;;;5046946;28;20215;-34
2022/09/10 04:16:03;;;;;;;8.68;5.20;;;19.30;99.90;;;;;;5052919;28;20298;-34
2022/09/10 04:18:33;;;;;;;10.70;6.40;;;19.30;99.90;;;;;;5062772;28;20336;-34
2022/09/10 04:21:00;;;;;;;9.50;6.80;;;19.30;99.90;;;;;;5060510;28;20207;-34
2022/09/10 04:23:28;;;;;;;8.00;6.20;;;19.30;99.90;;;;;;5063007;28;20219;-34
2022/09/10 04:25:58;;;;;;;15.30;6.87;;;19.30;99.90;;;;;;5046367;28;20233;-36
2022/09/10 04:28:27;;;;;;;8.88;5.95;;;19.30;99.90;;;;;;5050806;28;20219;-36
2022/09/10 04:30:54;;;;;;;10.27;6.10;;;19.30;99.90;;;;;;5051218;28;20208;-37
2022/09/10 04:33:24;;;;;;;10.00;6.00;;;19.30;99.90;;;;;;5045749;28;20208;-36
2022/09/10 04:35:51;;;;;;;8.90;6.77;;;19.30;99.90;;;;;;5045689;28;20224;-36
2022/09/10 04:38:18;;;;;;;8.70;6.50;;;19.30;99.90;;;;;;5054856;28;20214;-36
2022/09/10 04:40:48;;;;;;;11.50;6.90;;;19.30;99.90;;;;;;5051152;28;20777;-37
2022/09/10 04:43:17;;;;;;;11.13;6.53;;;19.30;99.90;;;;;;5061025;28;20341;-37
2022/09/10 04:45:44;;;;;;;8.07;6.03;;;19.30;99.90;;;;;;5066611;28;20216;-36
2022/09/10 04:48:15;;;;;;;10.73;6.55;;;19.30;99.90;;;;;;5058551;28;20282;-36
2022/09/10 04:50:42;;;;;;;9.23;6.70;;;19.30;99.90;;;;;;5069458;28;20279;-36
2022/09/10 04:53:33;;;;;;;10.02;6.20;;;19.30;99.90;;;;;;5060041;28;20248;-36
2022/09/10 04:56:00;;;;;;;9.02;6.85;;;19.30;99.90;;;;;;5044712;28;20589;-36
2022/09/10 04:58:30;;;;;;;9.40;6.83;;;19.30;99.90;;;;;;5048605;28;20231;-37
2022/09/10 05:01:04;;;;;;;13.10;6.38;;;19.30;99.90;;;;;;5056386;28;20213;-37
2022/09/10 05:03:33;;;;;;;8.75;7.03;;;19.30;99.90;;;;;;5057633;28;20758;-37
2022/09/10 05:06:01;;;;;;;10.48;6.93;;;19.30;99.90;;;;;;5045508;28;20581;-37
2022/09/10 05:08:28;;;;;;;9.25;6.63;;;19.20;99.90;;;;;;5048583;28;20201;-37
2022/09/10 05:11:01;;;;;;;9.32;7.00;;;19.30;99.90;;;;;;5050336;28;20208;-37
2022/09/10 05:13:29;;;;;;;9.18;6.65;;;19.20;99.90;;;;;;5057846;28;20686;-37
2022/09/10 05:16:06;;;;;;;9.43;6.65;;;19.20;99.90;;;;;;5052547;28;20197;-37
2022/09/10 05:18:35;;;;;;;12.53;7.83;;;19.30;99.90;;;;;;5056559;28;20681;-38
2022/09/10 05:21:04;;;;;;;11.47;8.30;;;19.30;99.90;;;;;;5048943;28;20235;-38
2022/09/10 05:23:31;;;;;;;11.05;7.72;;;19.30;99.90;;;;;;5054021;28;20224;-37
2022/09/10 05:26:03;;;;;;;9.88;6.95;;;19.30;99.90;;;;;;5057041;28;20196;-37
2022/09/10 05:28:30;;;;;;;13.25;8.80;;;19.30;99.90;;;;;;5058109;28;20208;-38
2022/09/10 05:30:57;;;;;;;9.07;7.60;;;19.30;99.90;;;;;;5062642;28;20215;-37
2022/09/10 05:33:27;;;;;;;9.30;7.63;;;19.30;99.90;;;;;;5054497;28;20258;-38
2022/09/10 05:35:56;;;;;;;11.07;8.00;;;19.30;99.90;;;;;;5057191;28;20196;-37
2022/09/10 05:38:24;;;;;;;11.80;8.60;;;19.30;99.90;;;;;;5063033;28;20287;-37
2022/09/10 05:40:56;;;;;;;13.00;10.43;;;19.30;99.90;;;;;;5048010;28;20215;-37
2022/09/10 05:43:23;;;;;;;11.23;8.77;;;19.30;99.90;;;;;;5054886;28;20235;-37
2022/09/10 05:45:55;;;;;;;12.70;10.95;;;19.30;99.90;;;;;;5059239;28;20628;-37
2022/09/10 05:48:22;;;;;;;12.97;10.70;;;19.30;99.90;;;;;;5066123;28;20212;-37
2022/09/10 05:50:52;;;;;;;11.87;10.60;;;19.30;99.90;;;;;;5054485;28;20201;-37
2022/09/10 05:53:20;;;;;;;17.97;12.50;;;19.30;99.90;;;;;;5051570;28;20642;-36
2022/09/10 05:55:52;;;;;;;14.77;11.07;;;19.30;99.90;;;;;;5068518;28;20207;-38
2022/09/10 05:58:19;;;;;;;14.55;11.30;;;19.30;99.90;;;;;;5046839;28;20630;-36
2022/09/10 06:00:53;;;;;;;13.33;11.17;;;19.30;99.90;;;;;;5048766;28;20188;-36
2022/09/10 06:03:25;;;;;;;14.73;11.37;;;19.30;99.90;;;;;;5056939;28;20239;-36
2022/09/10 06:05:54;;;;;;;17.30;12.87;;;19.30;99.90;;;;;;5057338;28;20714;-41
2022/09/10 06:08:22;;;;;;;13.90;11.07;;;19.30;99.90;;;;;;5059112;28;20222;-37
2022/09/10 06:11:01;;;;;;;13.97;10.90;;;19.30;99.90;;;;;;5064273;28;20584;-36
2022/09/10 06:13:32;;;;;;;17.33;12.43;;;19.30;99.90;;;;;;5062089;28;20199;-37
2022/09/10 06:16:03;;;;;;;13.77;11.07;;;19.40;99.90;;;;;;5063865;28;20216;-37
2022/09/10 06:18:33;;;;;;;16.92;12.27;;;19.40;99.90;;;;;;5047636;28;20204;-36
2022/09/10 06:21:11;;;;;;;14.13;11.60;;;19.40;99.90;;;;;;5058452;28;20204;-36
2022/09/10 06:23:39;;;;;;;14.90;12.43;;;19.40;99.90;;;;;;5055906;28;20223;-37
2022/09/10 06:26:11;;;;;;;18.20;14.95;;;19.40;99.90;;;;;;5052523;28;20198;-37
2022/09/10 06:28:43;;;;;;;18.48;13.80;;;19.40;99.90;;;;;;5059959;28;20664;-37
2022/09/10 06:31:15;;;;;;;18.73;14.73;;;19.50;99.90;;;;;;5058991;28;20199;-37
2022/09/10 06:33:45;;;;;;;18.90;14.70;;;19.50;99.90;;;;;;5048873;28;20212;-38
2022/09/10 06:36:17;;;;;;;20.70;14.32;;;19.50;99.90;;;;;;5056378;28;20200;-37
2022/09/10 06:38:44;;;;;;;15.20;13.38;;;19.50;99.90;;;;;;5048666;28;20211;-36
2022/09/10 06:41:16;;;;;;;18.05;12.98;;;19.40;99.90;;;;;;5049069;28;20274;-37
2022/09/10 06:43:45;;;;;;;20.33;13.30;;;19.40;99.90;;;;;;5052184;28;20228;-37
2022/09/10 06:46:19;;;;;;;18.42;13.98;;;19.50;99.90;;;;;;5060967;28;20204;-37
2022/09/10 06:49:10;;;;;;;17.33;12.65;;;19.50;99.90;;;;;;5059271;28;20223;-36
2022/09/10 06:51:40;;;;;;;17.52;13.50;;;19.50;99.90;;;;;;5081357;28;20357;-36
2022/09/10 06:54:07;;;;;;;17.02;13.27;;;19.50;99.90;;;;;;5065377;28;20580;-36
2022/09/10 06:56:41;;;;;;;15.27;13.23;;;19.50;99.90;;;;;;5067450;28;20215;-37
2022/09/10 06:59:08;;;;;;;20.88;14.43;;;19.50;99.90;;;;;;5068131;28;20744;-36
2022/09/10 07:01:40;;;;;;;13.93;12.25;;;19.50;99.90;;;;;;5053381;28;20215;-36
2022/09/10 07:04:12;;;;;;;18.33;13.10;;;19.40;99.90;;;;;;5047342;28;20313;-36
2022/09/10 07:06:39;;;;;;;16.02;13.23;;;19.50;99.90;;;;;;5068573;28;20207;-37
2022/09/10 07:09:07;;;;;;;15.82;13.18;;;19.50;99.90;;;;;;5066598;28;20213;-36
2022/09/10 07:11:34;;;;;;;16.17;13.13;;;19.50;99.90;;;;;;5059526;28;20223;-37
2022/09/10 07:14:12;;;;;;;16.00;12.43;;;19.50;99.90;;;;;;5056911;28;20569;-48
2022/09/10 07:16:45;;;;;;;16.03;12.80;;;19.50;99.90;;;;;;5065689;28;20634;-37
2022/09/10 07:19:17;;;;;;;17.40;12.70;;;19.50;99.90;;;;;;5052395;28;20646;-37
2022/09/10 07:21:44;;;;;;;15.50;12.55;;;19.50;99.90;;;;;;5058223;28;20208;-36
2022/09/10 07:24:14;;;;;;;15.77;12.40;;;19.50;99.90;;;;;;5062006;28;20231;-36
2022/09/10 07:26:46;;;;;;;18.25;12.55;;;19.50;99.90;;;;;;5047563;28;20243;-36
2022/09/10 07:29:13;;;;;;;15.48;12.80;;;19.50;99.90;;;;;;5066517;28;20204;-36
2022/09/10 07:31:41;;;;;;;17.77;12.60;;;19.50;99.90;;;;;;5045657;28;20197;-37
2022/09/10 07:34:08;;;;;;;13.15;11.73;;;19.40;99.90;;;;;;5049196;28;20764;-36
2022/09/10 07:36:35;;;;;;;12.60;11.38;;;19.50;99.90;;;;;;5048845;28;20295;-37
2022/09/10 07:39:03;;;;;;;14.03;12.00;;;19.40;99.90;;;;;;5047842;28;20628;-36
2022/09/10 07:41:35;;;;;;;16.17;12.07;;;19.40;99.90;;;;;;5062440;28;20730;-36
2022/09/10 07:44:05;;;;;;;16.33;11.27;;;19.50;99.90;;;;;;5053097;28;20236;-36
2022/09/10 07:46:36;;;;;;;16.73;12.52;;;19.40;99.90;;;;;;5061188;28;20198;-36
2022/09/10 07:49:12;;;;;;;15.43;11.93;;;19.40;99.90;;;;;;5053129;28;20204;-37
2022/09/10 07:51:44;;;;;;;16.85;12.02;;;19.40;99.90;;;;;;5069727;28;20768;-37
2022/09/10 07:54:15;;;;;;;15.10;11.18;;;19.40;99.90;;;;;;5046116;28;20205;-35
2022/09/10 07:56:45;;;;;;;18.35;12.32;;;19.50;99.90;;;;;;5046938;28;20200;-37
2022/09/10 07:59:15;;;;;;;13.27;10.93;;;19.40;99.90;;;;;;5055207;28;20235;-37
2022/09/10 08:01:43;;;;;;;13.25;11.55;;;19.40;99.90;;;;;;5061850;28;20216;-36
2022/09/10 08:04:18;;;;;;;14.02;11.07;;;19.40;99.90;;;;;;5041984;28;20223;-36
2022/09/10 08:06:45;;;;;;;14.07;10.40;;;19.50;99.90;;;;;;5067732;28;20208;-35
2022/09/10 08:09:20;;;;;;;17.30;11.75;;;19.40;99.90;;;;;;5066792;28;20295;-36
2022/09/10 08:11:49;;;;;;;20.15;11.82;;;19.40;99.90;;;;;;5048309;28;20243;-36
2022/09/10 08:14:18;;;;;;;14.30;10.57;;;19.50;99.90;;;;;;5057412;28;20624;-36
2022/09/10 08:16:46;;;;;;;13.10;10.27;;;19.50;99.90;;;;;;5060741;28;20311;-36
2022/09/10 08:19:20;;;;;;;12.48;10.20;;;19.40;99.90;;;;;;5046585;28;20196;-36
2022/09/10 08:21:47;;;;;;;15.93;10.07;;;19.40;99.90;;;;;;5046874;28;20214;-36
2022/09/10 08:24:17;;;;;;;15.32;10.55;;;19.50;99.90;;;;;;5056289;28;20223;-36
2022/09/10 08:26:44;;;;;;;14.50;10.35;;;19.50;99.90;;;;;;5064018;28;20879;-36
2022/09/10 08:29:16;;;;;;;11.40;10.10;;;19.50;99.90;;;;;;5047373;28;20199;-34
2022/09/10 08:31:46;;;;;;;11.63;9.77;;;19.50;99.90;;;;;;5044753;28;20246;-35
2022/09/10 08:34:13;;;;;;;15.48;10.95;;;19.60;99.90;;;;;;5054601;28;20208;-35
2022/09/10 08:36:41;;;;;;;10.70;9.60;;;19.50;99.90;;;;;;5066735;28;20211;-35
2022/09/10 08:39:10;;;;;;;13.02;10.60;;;19.60;99.90;;;;;;5065256;28;20203;-34
2022/09/10 08:41:38;;;;;;;13.32;9.73;;;19.60;99.90;;;;;;5066818;28;20204;-34
2022/09/10 08:44:10;;;;;;;14.77;9.98;;;19.60;99.90;;;;;;5053260;28;20224;-35
2022/09/10 08:46:54;;;;;;;18.95;10.85;;;19.60;99.90;;;;;;5049481;28;20627;-35
2022/09/10 08:49:35;;;;;;;16.70;10.23;;;19.70;99.90;;;;;;5048812;28;20211;-34
2022/09/10 08:52:02;;;;;;;13.35;9.50;;;19.60;99.90;;;;;;5073765;28;20546;-34
2022/09/10 08:54:58;;;;;;;13.45;8.95;;;19.60;99.90;;;;;;5050380;28;21005;-34
2022/09/10 08:57:45;;;;;;;11.82;9.20;;;19.70;99.90;;;;;;5050182;28;20581;-35
2022/09/10 09:00:24;;;;;;;12.20;9.45;;;19.70;99.90;;;;;;5056493;28;20200;-33
2022/09/10 09:03:17;;;;;;;15.23;10.48;;;19.70;99.90;;;;;;5068387;28;20210;-33
2022/09/10 09:05:46;;;;;;;14.25;9.85;;;19.80;99.90;;;;;;5064600;28;20228;-33
2022/09/10 09:08:26;;;;;;;9.50;8.57;;;19.80;99.90;;;;;;5060483;28;20200;-32
2022/09/10 09:11:13;;;;;;;11.15;9.00;;;19.80;99.90;;;;;;5049954;28;20201;-32
2022/09/10 09:14:01;;;;;;;13.43;9.65;;;19.90;99.90;;;;;;5050350;28;20315;-32
2022/09/10 09:17:08;;;;;;;12.52;9.80;;;19.90;99.90;;;;;;5060504;28;20203;-33
2022/09/10 09:19:57;;;;;;;11.77;8.90;;;19.90;99.90;;;;;;5050430;28;20701;-33
2022/09/10 09:22:58;;;;;;;10.93;9.10;;;20.00;99.90;;;;;;5053460;28;20577;-35
2022/09/10 09:26:08;;;;;;;9.02;8.13;;;20.10;99.90;;;;;;5066653;28;20740;-34
2022/09/10 09:29:16;;;;;;;19.13;9.68;;;20.20;99.90;;;;;;5066902;28;20573;-34
2022/09/10 09:31:50;;;;;;;16.98;10.00;;;20.20;99.90;;;;;;5062290;28;20215;-32
2022/09/10 09:34:45;;;;;;;15.05;7.97;;;20.20;99.90;;;;;;5050530;28;20609;-35
2022/09/10 09:37:20;;;;;;;16.75;8.82;;;20.20;99.90;;;;;;5051612;28;20196;-33
2022/09/10 09:40:13;;;;;;;9.65;7.88;;;20.20;99.90;;;;;;5069548;28;20254;-33
2022/09/10 09:43:27;;;;;;;11.03;7.43;;;20.20;99.90;;;;;;5067845;28;20213;-33
2022/09/10 09:45:54;;;;;;;9.48;8.15;;;20.30;99.90;;;;;;5052436;28;20259;-35
2022/09/10 09:48:23;;;;;;;10.60;7.63;;;20.30;99.90;;;;;;5052920;28;20614;-34
2022/09/10 09:50:55;;;;;;;14.25;8.20;;;20.30;99.90;;;;;;5072527;28;20276;-34
2022/09/10 09:53:28;;;;;;;11.35;7.53;;;20.30;99.90;;;;;;5049877;28;20681;-34
2022/09/10 09:56:00;;;;;;;10.52;6.90;;;20.40;99.90;;;;;;5064464;28;20694;-34
2022/09/10 09:58:36;;;;;;;8.77;7.10;;;20.40;99.90;;;;;;5068734;28;20316;-35
2022/09/10 10:01:05;;;;;;;12.38;8.13;;;20.40;99.90;;;;;;5065161;28;20404;-34
2022/09/10 10:03:53;;;;;;;11.48;7.20;;;20.50;99.90;;;;;;5059459;28;20681;-34
2022/09/10 10:06:33;;;;;;;10.50;7.47;;;20.50;99.90;;;;;;5055111;28;20199;-35
2022/09/10 10:09:05;;;;;;;8.25;6.75;;;20.50;99.90;;;;;;5054245;28;20299;-33
2022/09/10 10:11:45;;;;;;;12.60;7.30;;;20.50;99.90;;;;;;5053666;28;20218;-33
2022/09/10 10:14:19;;;;;;;9.15;6.80;;;20.50;99.90;;;;;;5067121;28;20203;-34
2022/09/10 10:16:54;;;;;;;12.70;8.18;;;20.50;99.90;;;;;;5064547;28;20208;-34
2022/09/10 10:19:35;;;;;;;8.77;6.97;;;20.50;99.90;;;;;;5047290;28;20195;-34
2022/09/10 10:22:18;;;;;;;8.07;6.10;;;20.50;99.90;;;;;;5048657;28;20208;-34
2022/09/10 10:24:48;;;;;;;9.63;6.45;;;20.50;99.90;;;;;;5052334;28;20231;-33
2022/09/10 10:27:20;;;;;;;19.30;7.70;;;20.50;99.90;;;;;;5059000;28;20671;-34
2022/09/10 10:30:00;;;;;;;9.25;5.90;;;20.50;99.90;;;;;;5049252;28;20212;-34
2022/09/10 10:32:43;;;;;;;10.23;6.80;;;20.50;99.90;;;;;;5046864;28;20228;-34
2022/09/10 10:35:53;;;;;;;8.90;5.78;;;20.50;99.90;;;;;;5047188;28;20204;-33
2022/09/10 10:38:32;;;;;;;8.43;6.05;;;20.50;99.90;;;;;;5047211;28;20252;-34
2022/09/10 10:41:32;;;;;;;9.73;6.47;;;20.50;99.90;;;;;;5047137;28;20249;-33
2022/09/10 10:44:25;;;;;;;8.85;5.72;;;20.60;99.90;;;;;;5061879;28;20229;-34
2022/09/10 10:47:28;;;;;;;7.47;5.22;;;20.60;99.90;;;;;;5061289;28;20211;-33
2022/09/10 10:50:05;;;;;;;8.10;5.15;;;20.60;99.90;;;;;;5047715;28;20202;-34
2022/09/10 10:53:10;;;;;;;8.18;5.70;;;20.60;99.90;;;;;;5059986;28;20625;-34
2022/09/10 10:55:50;;;;;;;7.45;4.63;;;20.60;99.90;;;;;;5066407;28;20219;-34
2022/09/10 10:58:39;;;;;;;8.10;5.03;;;20.50;99.90;;;;;;5047840;28;20309;-34
2022/09/10 11:01:28;;;;;;;10.30;5.10;;;20.50;99.90;;;;;;5058650;28;20207;-33
2022/09/10 11:04:17;;;;;;;6.88;4.03;;;20.50;99.90;;;;;;5065631;28;20223;-33
2022/09/10 11:07:01;;;;;;;6.80;3.97;;;20.50;99.90;;;;;;5064309;28;20204;-34
2022/09/10 11:09:39;;;;;;;5.70;4.18;;;20.50;99.90;;;;;;5067977;28;20202;-33
2022/09/10 11:12:47;;;;;;;4.57;3.42;;;20.50;99.90;;;;;;5063667;28;20211;-33
2022/09/10 11:15:35;;;;;;;8.95;3.80;;;20.50;99.90;;;;;;5066256;28;20666;-34
2022/09/10 11:18:33;;;;;;;6.65;3.40;;;20.60;99.90;;;;;;5056173;28;20288;-34
2022/09/10 11:21:13;;;;;;;8.88;3.60;;;20.60;99.90;;;;;;5052861;28;20215;-34
2022/09/10 11:24:08;;;;;;;4.15;3.10;;;20.60;99.90;;;;;;5059449;28;20711;-34
2022/09/10 11:26:43;;;;;;;5.07;2.92;;;20.60;99.90;;;;;;5061794;28;20644;-34
2022/09/10 11:29:31;;;;;;;5.35;3.17;;;20.60;99.90;;;;;;5053097;28;20203;-33
2022/09/10 11:32:06;;;;;;;7.97;3.92;;;20.60;99.90;;;;;;5072637;28;20207;-33
2022/09/10 11:35:00;;;;;;;8.23;3.80;;;20.60;99.90;;;;;;5048139;28;20222;-33
2022/09/10 11:38:09;;;;;;;8.63;3.63;;;20.60;99.90;;;;;;5058620;28;20210;-33
2022/09/10 11:40:52;;;;;;;7.35;4.07;;;20.70;99.90;;;;;;5067029;28;20318;-33
2022/09/10 11:43:47;;;;;;;8.73;3.58;;;20.60;99.90;;;;;;5064691;28;20226;-33
2022/09/10 11:46:20;;;;;;;7.70;4.38;;;20.60;99.90;;;;;;5048950;28;20620;-32
2022/09/10 11:48:49;;;;;;;5.97;3.38;;;20.60;99.90;;;;;;5061072;28;20295;-32
2022/09/10 11:51:33;;;;;;;6.35;3.58;;;20.60;99.90;;;;;;5054967;28;20288;-33
2022/09/10 11:54:02;;;;;;;9.75;4.10;;;20.70;99.90;;;;;;5059294;28;20207;-33
2022/09/10 11:56:59;;;;;;;7.47;4.07;;;20.60;99.90;;;;;;5055156;28;20209;-33
2022/09/10 11:59:41;;;;;;;5.50;3.42;;;20.70;99.90;;;;;;5060239;28;20241;-33
2022/09/10 12:02:26;;;;;;;7.28;3.60;;;20.70;99.90;;;;;;5050696;28;20674;-33
2022/09/10 12:05:26;;;;;;;6.05;3.70;;;20.70;99.90;;;;;;5056352;28;20229;-33
2022/09/10 12:07:56;;;;;;;8.25;4.15;;;20.70;99.90;;;;;;5047499;28;20208;-33
2022/09/10 12:10:53;;;;;;;6.03;3.20;;;20.70;99.90;;;;;;5050765;28;20204;-33
2022/09/10 12:13:21;;;;;;;6.50;3.67;;;20.70;99.90;;;;;;5048436;28;20219;-33
2022/09/10 12:15:56;;;;;;;6.78;3.75;;;20.70;99.90;;;;;;5051293;28;20319;-32
2022/09/10 12:18:35;;;;;;;5.43;4.20;;;20.70;99.90;;;;;;5046234;28;20226;-32
2022/09/10 12:21:19;;;;;;;5.70;3.78;;;20.70;99.90;;;;;;5051188;28;20203;-34
2022/09/10 12:23:46;;;;;;;7.05;4.13;;;20.70;99.90;;;;;;5051137;28;20250;-34
2022/09/10 12:26:18;;;;;;;5.88;4.30;;;20.70;99.90;;;;;;5060363;28;20200;-34
2022/09/10 12:28:51;;;;;;;6.43;4.33;;;20.70;99.90;;;;;;5050212;28;20358;-33
2022/09/10 12:31:20;;;;;;;7.00;5.28;;;20.60;99.90;;;;;;5046211;28;20203;-33
2022/09/10 12:33:53;;;;;;;8.27;5.38;;;20.70;99.90;;;;;;5055489;28;20247;-33
2022/09/10 12:36:28;;;;;;;10.70;4.95;;;20.70;99.90;;;;;;5053352;28;20204;-33
2022/09/10 12:39:25;;;;;;;8.10;4.90;;;20.70;99.90;;;;;;5047430;28;20265;-33
2022/09/10 12:41:52;;;;;;;9.45;5.47;;;20.70;99.90;;;;;;5047022;28;20761;-33
2022/09/10 12:44:24;;;;;;;6.68;4.75;;;20.70;99.90;;;;;;5055098;28;20220;-33
2022/09/10 12:47:17;;;;;;;6.25;4.65;;;20.70;99.90;;;;;;5062835;28;20213;-33
2022/09/10 12:49:47;;;;;;;6.30;4.97;;;20.70;99.90;;;;;;5055906;28;20680;-33
2022/09/10 12:52:22;;;;;;;7.82;5.22;;;20.80;99.90;;;;;;5050940;28;20680;-33
2022/09/10 12:55:27;;;;;;;7.03;4.88;;;20.80;99.90;;;;;;5063804;28;20690;-33
2022/09/10 12:57:58;;;;;;;8.25;4.75;;;20.80;99.90;;;;;;5059309;28;20239;-34
2022/09/10 13:00:38;;;;;;;7.95;4.10;;;20.80;99.90;;;;;;5046654;28;20628;-33
2022/09/10 13:03:17;;;;;;;7.03;4.53;;;20.80;99.90;;;;;;5054303;28;20215;-33
2022/09/10 13:05:44;;;;;;;8.32;4.75;;;20.80;99.90;;;;;;5063139;28;20273;-33
2022/09/10 13:08:20;;;;;;;8.43;4.38;;;20.80;99.90;;;;;;5062500;28;20220;-34
2022/09/10 13:11:05;;;;;;;8.23;5.13;;;20.80;99.90;;;;;;5047335;28;20207;-33
2022/09/10 13:13:55;;;;;;;7.18;4.00;;;20.80;99.90;;;;;;5052380;28;20212;-33
2022/09/10 13:16:28;;;;;;;5.38;4.63;;;20.80;99.90;;;;;;5046757;28;20204;-33
2022/09/10 13:19:14;;;;;;;4.80;3.45;;;20.70;99.90;;;;;;5050085;28;20295;-33
2022/09/10 13:21:43;;;;;;;8.52;4.47;;;20.70;99.90;;;;;;5052333;28;20200;-34